首页
METAR-TAF:

METAR-TAF

机场 :

安東尼奧·汪帕特國際機場

阿加尼亚, 關島, 美国

纬度: 13-29N, 经度: 144-48E, 海拔: 91米

当前天气观测

该预报发布于1小时和10分钟前的14:54 UTC
风速10节,风向东转东北
温度 27°C
湿度 79%
气压 1015 hPa
能見度: 16.1公里
少量云层高于3700英尺

METAR: PGUM 131454Z 06010KT 10SM FEW037 27/23 A2997 RMK AO2 RAB21E28 SLP141 P0000 60000 T02670228 58002

时间: 02:04 (16:04 UTC)

预报

该预报发布于4小时和44分钟前的11:20 UTC
预报有效从13日的 12点(UTC)到 14日的 18点(UTC)
风速11节,风向东转东北
能見度: 10公里
散云层高于1800英尺
散云层高于5000英尺
多云层高于14000英尺
附近有阵雨
从 13日的 2300点(UTC)
风速15节,风向,有时为25节阵风
能見度: 10公里
散云层高于2000英尺
附近有阵雨

TAF: PGUM 131120Z 1312/1418 07011KT P6SM VCSH SCT018 SCT050 BKN140 FM132300 08015G25KT P6SM VCSH SCT020

超过4000个机场的气象观测和天气预报(METAR&TAF报告)。

可查询的气象台以黄色和红色小点在地图上表示。

将鼠标移到小点上方,可查看气象台名称。

然后点击查看天气观测和预报。

如需切换地图:点击带黑十字的绿色按钮放大地图;点击带横线的绿色按钮缩小地图;或者点击绿色箭头查看邻近地区的地图。


METAR-TAF: